MDLR/LRM METAR and TAF weather

Enter ICAO airport designator
Station Type Date Time Source
MDLR METAR 2020/07/12 00:00 UTC NOAA

MDLR 120000Z 09007KT 9999 FEW020 28/24 Q1014


Station Type Date Time Source
MDLR Decoded METAR 2020/07/12 00:00 UTC NOAA

La Romana International Airport, Dominican Republic (MDLR) 18-25N 068-57W
Jul 11, 2020 - 08:00 PM EDT / 2020.07.12 0000 UTC
Wind: from the E (090 degrees) at 8 MPH (7 KT):0
Visibility: greater than 7 mile(s):0
Sky conditions: mostly clear
Temperature: 82 F (28 C)
Dew Point: 75 F (24 C)
Relative Humidity: 78%
Pressure (altimeter): 29.94 in. Hg (1014 hPa)
ob: MDLR 120000Z 09007KT 9999 FEW020 28/24 Q1014
cycle: 0

Station Type Date Time Source
MDLR TAF 2020/07/11 18:15 UTC NOAA

TAF TAF MDLR 111600Z 1118/1218 13012KT 9999 SCT022 PROB30 1118/1200 7000 -TSRA FEW016CB BKN018
BECMG 1200/1202 00000KT

Example: see airport list